Clorinda, Argentina
Current Conditions -  °F | °C
As of 1:00 AM on Wednesday 22 Oct 2014 (Local Time) from SGAS Reporting Station
Clear Clear  
Wind Chill: 72°   Ceiling: Unl
Heat Index: 72°   Visibility: 6mi
Dew Point: 54°   Wind: 5mph
Humidity: 53%   Direction: 140°SE
Pressure: 29.97"   Gusts: NA
Location:  25.29°S, 57.72°W
Report Text: SGAS 220400Z 14004KT 090V160 CAVOK 22/12 Q1015
Loading
Personal Weather Stations






























Interactive Weather Map New forecast layout! Learn more

10-Day Weather Forecast

Advertisements
Track Severe Weather on mobile